Time;durP1;ratioP1;P1;durP2;ratioP2;P2;SDS_P1;SDS_P2;PMS_P1;PMS_P2;Temp;Humidity;BMP_temperature;BMP_pressure;BME280_temperature;BME280_humidity;BME280_pressure;Samples;Min_cycle;Max_cycle;Signal;HPM_P1;HPM_P2
2023/03/14 00:01:23;;;;;;;;;;;;;;;-144.70;100.00;64190.91;4765392;30;19930;-70
2023/03/14 00:03:50;;;;;;;;;;;;;;;-144.70;100.00;64190.91;4754231;30;19922;-70
2023/03/14 00:06:17;;;;;;;;;;;;;;;-144.70;100.00;64190.91;4757528;30;19928;-69
2023/03/14 00:08:43;;;;;;;;;;;;;;;-144.70;100.00;64190.91;4770785;30;20385;-70
2023/03/14 00:11:14;;;;;;;;;;;;;;;-144.70;100.00;64190.91;4758432;30;19918;-70
2023/03/14 00:13:40;;;;;;;;;;;;;;;-144.70;100.00;64190.91;4754946;30;20017;-71
2023/03/14 00:16:07;;;;;;;;;;;;;;;-144.70;100.00;64190.91;4779238;30;20043;-70
2023/03/14 00:18:33;;;;;;;;;;;;;;;-144.70;100.00;64190.91;4774048;30;19921;-70
2023/03/14 00:20:59;;;;;;;;;;;;;;;-144.70;100.00;64190.91;4772388;30;19921;-70
2023/03/14 00:23:26;;;;;;;;;;;;;;;-144.70;100.00;64190.91;4785351;30;19921;-70
2023/03/14 00:25:52;;;;;;;;;;;;;;;-144.70;100.00;64190.91;4790008;30;19944;-71
2023/03/14 00:28:18;;;;;;;;;;;;;;;-144.70;100.00;64190.91;4787094;30;20381;-71
2023/03/14 00:30:44;;;;;;;;;;;;;;;-144.70;100.00;64190.91;4772602;30;19929;-70
2023/03/14 00:33:10;;;;;;;;;;;;;;;-144.70;100.00;64190.91;4772145;30;20285;-70
2023/03/14 00:35:35;;;;;;;;;;;;;;;-144.70;100.00;64190.91;4771845;30;20369;-64
2023/03/14 00:38:01;;;;;;;;;;;;;;;-144.70;100.00;64190.91;4772018;30;20425;-70
2023/03/14 00:40:27;;;;;;;;;;;;;;;-144.70;100.00;64190.91;4771325;30;19922;-70
2023/03/14 00:42:53;;;;;;;;;;;;;;;-144.70;100.00;64190.91;4761736;30;19929;-70
2023/03/14 00:45:19;;;;;;;;;;;;;;;-144.70;100.00;64190.91;4783700;30;19929;-70
2023/03/14 00:47:45;;;;;;;;;;;;;;;-144.70;100.00;64190.91;4789906;30;20303;-70
2023/03/14 00:50:11;;;;;;;;;;;;;;;-144.70;100.00;64190.91;4789642;29;20016;-70
2023/03/14 00:52:37;;;;;;;;;;;;;;;-144.70;100.00;64190.91;4789979;30;19921;-70
2023/03/14 00:55:03;;;;;;;;;;;;;;;-144.70;100.00;64190.91;4789568;30;19917;-70
2023/03/14 00:57:29;;;;;;;;;;;;;;;-144.70;100.00;64190.91;4789853;30;20373;-70
2023/03/14 00:59:55;;;;;;;;;;;;;;;-144.70;100.00;64190.91;4789601;30;19918;-70
2023/03/14 01:02:21;;;;;;;;;;;;;;;-144.70;100.00;64190.91;4789568;30;19933;-70
2023/03/14 01:04:48;;;;;;;;;;;;;;;-144.70;100.00;64190.91;4789181;30;19924;-70
2023/03/14 01:07:14;;;;;;;;;;;;;;;-144.70;100.00;64190.91;4789609;30;19979;-70
2023/03/14 01:09:40;;;;;;;;;;;;;;;-144.70;100.00;64190.91;4787203;30;19921;-70
2023/03/14 01:12:06;;;;;;;;;;;;;;;-144.70;100.00;64190.91;4770275;30;20386;-70
2023/03/14 01:14:32;;;;;;;;;;;;;;;-144.70;100.00;64190.91;4767824;30;19944;-59
2023/03/14 01:17:00;;;;;;;;;;;;;;;-144.70;100.00;64190.91;4771060;30;19918;-57
2023/03/14 01:19:29;;;;;;;;;;;;;;;-144.70;100.00;64190.91;4771112;30;20008;-57
2023/03/14 01:21:55;;;;;;;;;;;;;;;-144.70;100.00;64190.91;4770603;30;19925;-57
2023/03/14 01:24:21;;;;;;;;;;;;;;;-144.70;100.00;64190.91;4770280;30;19918;-59
2023/03/14 01:26:47;;;;;;;;;;;;;;;-144.70;100.00;64190.91;4754849;30;19929;-56
2023/03/14 01:29:12;;;;;;;;;;;;;;;-144.70;100.00;64190.91;4770862;30;20024;-54
2023/03/14 01:31:38;;;;;;;;;;;;;;;-144.70;100.00;64190.91;4771230;30;19917;-55
2023/03/14 01:34:04;;;;;;;;;;;;;;;-144.70;100.00;64190.91;4770982;30;19926;-55
2023/03/14 01:36:30;;;;;;;;;;;;;;;-144.70;100.00;64190.91;4771028;30;20390;-57
2023/03/14 01:38:56;;;;;;;;;;;;;;;-144.70;100.00;64190.91;4770387;30;19957;-65
2023/03/14 01:41:24;;;;;;;;;;;;;;;-144.70;100.00;64190.91;4771015;30;19932;-60
2023/03/14 01:43:50;;;;;;;;;;;;;;;-144.70;100.00;64190.91;4770809;30;19925;-58
2023/03/14 01:46:31;;;;;;;;;;;;;;;-144.70;100.00;64190.91;4771305;30;20001;-63
2023/03/14 01:49:17;;;;;;;;;;;;;;;-144.70;100.00;64190.91;4737208;30;20390;-62
2023/03/14 01:51:50;;;;;;;;;;;;;;;-144.70;100.00;64190.91;4784183;30;19914;-62
2023/03/14 01:54:21;;;;;;;;;;;;;;;-144.70;100.00;64190.91;4788464;30;20357;-62
2023/03/14 01:56:53;;;;;;;;;;;;;;;-144.70;100.00;64190.91;4775781;30;20388;-62
2023/03/14 01:59:20;;;;;;;;;;;;;;;-144.70;100.00;64190.91;4752918;30;19954;-61
2023/03/14 02:01:47;;;;;;;;;;;;;;;-144.70;100.00;64190.91;4768694;30;20412;-63
2023/03/14 02:04:14;;;;;;;;;;;;;;;-144.70;100.00;64190.91;4754094;30;20304;-61
2023/03/14 02:06:51;;;;;;;;;;;;;;;-144.70;100.00;64190.91;4770422;30;20360;-62
2023/03/14 02:09:18;;;;;;;;;;;;;;;-144.70;100.00;64190.91;4770561;30;19918;-63
2023/03/14 02:11:44;;;;;;;;;;;;;;;-144.70;100.00;64190.91;4770547;30;20380;-62
2023/03/14 02:14:15;;;;;;;;;;;;;;;-144.70;100.00;64190.91;4770239;30;20373;-62
2023/03/14 02:16:41;;;;;;;;;;;;;;;-144.70;100.00;64190.91;4770496;30;20004;-61
2023/03/14 02:19:08;;;;;;;;;;;;;;;-144.70;100.00;64190.91;4770395;30;19924;-63
2023/03/14 02:21:37;;;;;;;;;;;;;;;-144.70;100.00;64190.91;4770136;30;19928;-62
2023/03/14 02:24:22;;;;;;;;;;;;;;;-144.70;100.00;64190.91;4770082;30;19987;-63
2023/03/14 02:27:06;;;;;;;;;;;;;;;-144.70;100.00;64190.91;4767939;30;19934;-59
2023/03/14 02:29:34;;;;;;;;;;;;;;;-144.70;100.00;64190.91;4768226;30;20420;-58
2023/03/14 02:32:00;;;;;;;;;;;;;;;-144.70;100.00;64190.91;4752403;30;19915;-58
2023/03/14 02:34:26;;;;;;;;;;;;;;;-144.70;100.00;64190.91;4751828;30;19926;-57
2023/03/14 02:36:53;;;;;;;;;;;;;;;-144.70;100.00;64190.91;4764149;30;19975;-52
2023/03/14 02:39:37;;;;;;;;;;;;;;;-144.70;100.00;64190.91;4769822;30;19917;-53
2023/03/14 02:42:03;;;;;;;;;;;;;;;-144.70;100.00;64190.91;4774209;30;20361;-69
2023/03/14 02:44:29;;;;;;;;;;;;;;;-144.70;100.00;64190.91;4776867;30;19932;-67
2023/03/14 02:46:55;;;;;;;;;;;;;;;-144.70;100.00;64190.91;4761115;30;19922;-68
2023/03/14 02:49:21;;;;;;;;;;;;;;;-144.70;100.00;64190.91;4769199;30;20016;-67
2023/03/14 02:51:48;;;;;;;;;;;;;;;-144.70;100.00;64190.91;4765820;30;20381;-66
2023/03/14 02:54:15;;;;;;;;;;;;;;;-144.70;100.00;64190.91;4768197;30;20301;-68
2023/03/14 02:56:41;;;;;;;;;;;;;;;-144.70;100.00;64190.91;4769284;30;19922;-64
2023/03/14 02:59:07;;;;;;;;;;;;;;;-144.70;100.00;64190.91;4769854;30;19929;-63
2023/03/14 03:01:33;;;;;;;;;;;;;;;-144.70;100.00;64190.91;4770007;30;19925;-62
2023/03/14 03:03:59;;;;;;;;;;;;;;;-144.70;100.00;64190.91;4769078;30;19929;-63
2023/03/14 03:06:25;;;;;;;;;;;;;;;-144.70;100.00;64190.91;4774476;30;19921;-62
2023/03/14 03:08:52;;;;;;;;;;;;;;;-144.70;100.00;64190.91;4784960;30;20442;-62
2023/03/14 03:11:17;;;;;;;;;;;;;;;-144.70;100.00;64190.91;4770905;30;19922;-62
2023/03/14 03:13:43;;;;;;;;;;;;;;;-144.70;100.00;64190.91;4771873;30;20313;-62
2023/03/14 03:16:09;;;;;;;;;;;;;;;-144.70;100.00;64190.91;4759198;30;20008;-63
2023/03/14 03:18:35;;;;;;;;;;;;;;;-144.70;100.00;64190.91;4762930;30;19932;-63
2023/03/14 03:21:02;;;;;;;;;;;;;;;-144.70;100.00;64190.91;4787401;30;19918;-63
2023/03/14 03:23:28;;;;;;;;;;;;;;;-144.70;100.00;64190.91;4773692;30;19922;-63
2023/03/14 03:25:54;;;;;;;;;;;;;;;-144.70;100.00;64190.91;4778715;30;20399;-63
2023/03/14 03:28:20;;;;;;;;;;;;;;;-144.70;100.00;64190.91;4771082;30;19930;-63
2023/03/14 03:30:45;;;;;;;;;;;;;;;-144.70;100.00;64190.91;4769559;30;19917;-63
2023/03/14 03:33:12;;;;;;;;;;;;;;;-144.70;100.00;64190.91;4769182;30;20361;-63
2023/03/14 03:35:44;;;;;;;;;;;;;;;-144.70;100.00;64190.91;4769437;30;20266;-63
2023/03/14 03:38:11;;;;;;;;;;;;;;;-144.70;100.00;64190.91;4771623;30;19918;-63
2023/03/14 03:40:37;;;;;;;;;;;;;;;-144.70;100.00;64190.91;4776734;30;20257;-63
2023/03/14 03:43:03;;;;;;;;;;;;;;;-144.70;100.00;64190.91;4772989;30;19917;-64
2023/03/14 03:45:29;;;;;;;;;;;;;;;-144.70;100.00;64190.91;4772674;30;19921;-64
2023/03/14 03:47:56;;;;;;;;;;;;;;;-144.70;100.00;64190.91;4772803;30;20454;-64
2023/03/14 03:50:21;;;;;;;;;;;;;;;-144.70;100.00;64190.91;4750305;30;19925;-64
2023/03/14 03:52:47;;;;;;;;;;;;;;;-144.70;100.00;64190.91;4772818;30;19918;-64
2023/03/14 03:55:13;;;;;;;;;;;;;;;-144.70;100.00;64190.91;4771483;30;20020;-64
2023/03/14 03:57:39;;;;;;;;;;;;;;;-144.70;100.00;64190.91;4759028;30;20373;-64
2023/03/14 04:00:06;;;;;;;;;;;;;;;-144.70;100.00;64190.91;4772284;30;19924;-64
2023/03/14 04:02:32;;;;;;;;;;;;;;;-144.70;100.00;64190.91;4771705;30;20372;-64
2023/03/14 04:04:58;;;;;;;;;;;;;;;-144.70;100.00;64190.91;4772180;30;19949;-63
2023/03/14 04:07:24;;;;;;;;;;;;;;;-144.70;100.00;64190.91;4771997;30;19918;-63
2023/03/14 04:09:50;;;;;;;;;;;;;;;-144.70;100.00;64190.91;4772465;30;19975;-64
2023/03/14 04:12:15;;;;;;;;;;;;;;;-144.70;100.00;64190.91;4782701;30;19972;-63
2023/03/14 04:14:41;;;;;;;;;;;;;;;-144.70;100.00;64190.91;4754454;30;20197;-63
2023/03/14 04:17:08;;;;;;;;;;;;;;;-144.70;100.00;64190.91;4768312;30;19921;-64
2023/03/14 04:19:33;;;;;;;;;;;;;;;-144.70;100.00;64190.91;4772894;30;19918;-63
2023/03/14 04:21:59;;;;;;;;;;;;;;;-144.70;100.00;64190.91;4772228;30;19925;-64
2023/03/14 04:24:25;;;;;;;;;;;;;;;-144.70;100.00;64190.91;4771729;30;19941;-63
2023/03/14 04:26:51;;;;;;;;;;;;;;;-144.70;100.00;64190.91;4772250;30;19917;-64
2023/03/14 04:29:17;;;;;;;;;;;;;;;-144.70;100.00;64190.91;4771562;30;19926;-63
2023/03/14 04:31:43;;;;;;;;;;;;;;;-144.70;100.00;64190.91;4771850;30;20377;-63
2023/03/14 04:34:09;;;;;;;;;;;;;;;-144.70;100.00;64190.91;4771765;30;19925;-63
2023/03/14 04:36:35;;;;;;;;;;;;;;;-144.70;100.00;64190.91;4755829;30;19925;-63
2023/03/14 04:39:01;;;;;;;;;;;;;;;-144.70;100.00;64190.91;4772071;30;20020;-63
2023/03/14 04:41:27;;;;;;;;;;;;;;;-144.70;100.00;64190.91;4771857;30;19917;-63
2023/03/14 04:43:53;;;;;;;;;;;;;;;-144.70;100.00;64190.91;4788503;30;19929;-63
2023/03/14 04:46:18;;;;;;;;;;;;;;;-144.70;100.00;64190.91;4789557;29;19922;-63
2023/03/14 04:48:44;;;;;;;;;;;;;;;-144.70;100.00;64190.91;4789065;29;20308;-63
2023/03/14 04:51:10;;;;;;;;;;;;;;;-144.70;100.00;64190.91;4754203;30;20297;-63
2023/03/14 04:53:36;;;;;;;;;;;;;;;-144.70;100.00;64190.91;4770831;30;19918;-63
2023/03/14 04:56:02;;;;;;;;;;;;;;;-144.70;100.00;64190.91;4771450;30;20599;-62
2023/03/14 04:58:28;;;;;;;;;;;;;;;-144.70;100.00;64190.91;4771084;30;20128;-62
2023/03/14 05:00:54;;;;;;;;;;;;;;;-144.70;100.00;64190.91;4771331;30;19965;-62
2023/03/14 05:03:20;;;;;;;;;;;;;;;-144.70;100.00;64190.91;4771375;30;19940;-61
2023/03/14 05:05:46;;;;;;;;;;;;;;;-144.70;100.00;64190.91;4771224;30;19917;-62
2023/03/14 05:08:12;;;;;;;;;;;;;;;-144.70;100.00;64190.91;4771367;30;19969;-61
2023/03/14 05:10:38;;;;;;;;;;;;;;;-144.70;100.00;64190.91;4771264;30;20005;-61
2023/03/14 05:13:04;;;;;;;;;;;;;;;-144.70;100.00;64190.91;4770855;30;19979;-61
2023/03/14 05:15:30;;;;;;;;;;;;;;;-144.70;100.00;64190.91;4771089;30;20308;-61
2023/03/14 05:17:56;;;;;;;;;;;;;;;-144.70;100.00;64190.91;4770916;30;20313;-61
2023/03/14 05:20:21;;;;;;;;;;;;;;;-144.70;100.00;64190.91;4771164;30;19922;-61
2023/03/14 05:22:47;;;;;;;;;;;;;;;-144.70;100.00;64190.91;4770789;30;19917;-61
2023/03/14 05:25:13;;;;;;;;;;;;;;;-144.70;100.00;64190.91;4770969;30;19958;-61
2023/03/14 05:27:39;;;;;;;;;;;;;;;-144.70;100.00;64190.91;4771091;30;20350;-61
2023/03/14 05:30:05;;;;;;;;;;;;;;;-144.70;100.00;64190.91;4771033;30;19921;-61
2023/03/14 05:32:31;;;;;;;;;;;;;;;-144.70;100.00;64190.91;4771143;30;20008;-62
2023/03/14 05:34:59;;;;;;;;;;;;;;;-144.70;100.00;64190.91;4770647;30;20013;-62
2023/03/14 05:37:25;;;;;;;;;;;;;;;-144.70;100.00;64190.91;4771004;30;19918;-62
2023/03/14 05:39:51;;;;;;;;;;;;;;;-144.70;100.00;64190.91;4770928;30;19943;-62
2023/03/14 05:42:17;;;;;;;;;;;;;;;-144.70;100.00;64190.91;4770932;30;20011;-62
2023/03/14 05:44:42;;;;;;;;;;;;;;;-144.70;100.00;64190.91;4770425;30;19968;-62
2023/03/14 05:47:08;;;;;;;;;;;;;;;-144.70;100.00;64190.91;4770267;30;19929;-61
2023/03/14 05:49:34;;;;;;;;;;;;;;;-144.70;100.00;64190.91;4769877;30;19922;-61
2023/03/14 05:52:00;;;;;;;;;;;;;;;-144.70;100.00;64190.91;4770733;30;19924;-61
2023/03/14 05:54:26;;;;;;;;;;;;;;;-144.70;100.00;64190.91;4770524;30;19928;-61
2023/03/14 05:56:52;;;;;;;;;;;;;;;-144.70;100.00;64190.91;4770649;30;20101;-61
2023/03/14 05:59:18;;;;;;;;;;;;;;;-144.70;100.00;64190.91;4770422;30;19924;-61
2023/03/14 06:01:44;;;;;;;;;;;;;;;-144.70;100.00;64190.91;4769845;30;19917;-61
2023/03/14 06:04:09;;;;;;;;;;;;;;;-144.70;100.00;64190.91;4770247;30;20013;-62
2023/03/14 06:06:35;;;;;;;;;;;;;;;-144.70;100.00;64190.91;4770366;30;20381;-61
2023/03/14 06:09:01;;;;;;;;;;;;;;;-144.70;100.00;64190.91;4767379;30;20298;-61
2023/03/14 06:11:27;;;;;;;;;;;;;;;-144.70;100.00;64190.91;4757752;30;20008;-61
2023/03/14 06:13:53;;;;;;;;;;;;;;;-144.70;100.00;64190.91;4770193;30;20255;-61
2023/03/14 06:16:19;;;;;;;;;;;;;;;-144.70;100.00;64190.91;4764886;30;19926;-61
2023/03/14 06:18:46;;;;;;;;;;;;;;;-144.70;100.00;64190.91;4769204;30;20454;-61
2023/03/14 06:21:12;;;;;;;;;;;;;;;-144.70;100.00;64190.91;4769738;30;19944;-61
2023/03/14 06:23:38;;;;;;;;;;;;;;;-144.70;100.00;64190.91;4770002;30;19928;-61
2023/03/14 06:26:04;;;;;;;;;;;;;;;-144.70;100.00;64190.91;4769510;30;19921;-61
2023/03/14 06:28:30;;;;;;;;;;;;;;;-144.70;100.00;64190.91;4760362;30;19921;-61
2023/03/14 06:30:56;;;;;;;;;;;;;;;-144.70;100.00;64190.91;4759154;30;19922;-61
2023/03/14 06:33:22;;;;;;;;;;;;;;;-144.70;100.00;64190.91;4769784;30;19921;-61
2023/03/14 06:35:48;;;;;;;;;;;;;;;-144.70;100.00;64190.91;4768722;30;20105;-61
2023/03/14 06:38:14;;;;;;;;;;;;;;;-144.70;100.00;64190.91;4769964;30;19956;-61
2023/03/14 06:40:39;;;;;;;;;;;;;;;-144.70;100.00;64190.91;4768146;30;19926;-61
2023/03/14 06:43:06;;;;;;;;;;;;;;;-144.70;100.00;64190.91;4769672;30;20374;-61
2023/03/14 06:45:31;;;;;;;;;;;;;;;-144.70;100.00;64190.91;4768513;30;19983;-61
2023/03/14 06:47:57;;;;;;;;;;;;;;;-144.70;100.00;64190.91;4772006;30;19921;-61
2023/03/14 06:50:23;;;;;;;;;;;;;;;-144.70;100.00;64190.91;4769580;30;19918;-61
2023/03/14 06:52:49;;;;;;;;;;;;;;;-144.70;100.00;64190.91;4767748;30;20016;-62
2023/03/14 06:55:16;;;;;;;;;;;;;;;-144.70;100.00;64190.91;4764380;30;19922;-60
2023/03/14 06:57:43;;;;;;;;;;;;;;;-144.70;100.00;64190.91;4755559;30;19937;-61
2023/03/14 07:00:10;;;;;;;;;;;;;;;-144.70;100.00;64190.91;4752882;30;20274;-61
2023/03/14 07:02:36;;;;;;;;;;;;;;;-144.70;100.00;64190.91;4758202;30;19925;-61
2023/03/14 07:05:02;;;;;;;;;;;;;;;-144.70;100.00;64190.91;4776906;30;19928;-61
2023/03/14 07:07:27;;;;;;;;;;;;;;;-144.70;100.00;64190.91;4785869;30;19956;-61
2023/03/14 07:09:53;;;;;;;;;;;;;;;-144.70;100.00;64190.91;4782910;30;19960;-61
2023/03/14 07:12:19;;;;;;;;;;;;;;;-144.70;100.00;64190.91;4787464;30;20422;-61
2023/03/14 07:14:45;;;;;;;;;;;;;;;-144.70;100.00;64190.91;4787484;30;19914;-60
2023/03/14 07:17:11;;;;;;;;;;;;;;;-144.70;100.00;64190.91;4781183;30;20455;-61
2023/03/14 07:19:37;;;;;;;;;;;;;;;-144.70;100.00;64190.91;4751625;30;20397;-60
2023/03/14 07:22:04;;;;;;;;;;;;;;;-144.70;100.00;64190.91;4777847;30;20023;-61
2023/03/14 07:24:30;;;;;;;;;;;;;;;-144.70;100.00;64190.91;4785191;30;19925;-61
2023/03/14 07:26:56;;;;;;;;;;;;;;;-144.70;100.00;64190.91;4769555;30;20270;-61
2023/03/14 07:29:22;;;;;;;;;;;;;;;-144.70;100.00;64190.91;4769563;30;20369;-61
2023/03/14 07:31:47;;;;;;;;;;;;;;;-144.70;100.00;64190.91;4763065;30;20278;-61
2023/03/14 07:34:13;;;;;;;;;;;;;;;-144.70;100.00;64190.91;4769280;30;19925;-61
2023/03/14 07:36:39;;;;;;;;;;;;;;;-144.70;100.00;64190.91;4769407;30;19925;-61
2023/03/14 07:39:05;;;;;;;;;;;;;;;-144.70;100.00;64190.91;4769408;30;20016;-61
2023/03/14 07:41:31;;;;;;;;;;;;;;;-144.70;100.00;64190.91;4769197;30;20361;-61
2023/03/14 07:43:57;;;;;;;;;;;;;;;-144.70;100.00;64190.91;4771349;30;19918;-61
2023/03/14 07:46:23;;;;;;;;;;;;;;;-144.70;100.00;64190.91;4768184;30;20400;-61
2023/03/14 07:48:49;;;;;;;;;;;;;;;-144.70;100.00;64190.91;4768762;30;19921;-61
2023/03/14 07:51:15;;;;;;;;;;;;;;;-144.70;100.00;64190.91;4767861;30;19918;-61
2023/03/14 07:53:42;;;;;;;;;;;;;;;-144.70;100.00;64190.91;4767526;30;19921;-61
2023/03/14 07:56:09;;;;;;;;;;;;;;;-144.70;100.00;64190.91;4773883;30;19974;-61
2023/03/14 07:58:34;;;;;;;;;;;;;;;-144.70;100.00;64190.91;4764276;30;19967;-61
2023/03/14 08:01:00;;;;;;;;;;;;;;;-144.70;100.00;64190.91;4766254;30;19952;-61
2023/03/14 08:03:26;;;;;;;;;;;;;;;-144.70;100.00;64190.91;4766409;30;19925;-61
2023/03/14 08:05:53;;;;;;;;;;;;;;;-144.70;100.00;64190.91;4768678;30;20378;-61
2023/03/14 08:08:18;;;;;;;;;;;;;;;-144.70;100.00;64190.91;4768931;30;19922;-61
2023/03/14 08:10:46;;;;;;;;;;;;;;;-144.70;100.00;64190.91;4769132;30;20267;-61
2023/03/14 08:13:12;;;;;;;;;;;;;;;-144.70;100.00;64190.91;4768620;30;19918;-62
2023/03/14 08:15:38;;;;;;;;;;;;;;;-144.70;100.00;64190.91;4768324;30;19918;-62
2023/03/14 08:18:04;;;;;;;;;;;;;;;-144.70;100.00;64190.91;4769041;30;19966;-61
2023/03/14 08:20:30;;;;;;;;;;;;;;;-144.70;100.00;64190.91;4769175;30;19983;-61
2023/03/14 08:22:57;;;;;;;;;;;;;;;-144.70;100.00;64190.91;4768646;30;19944;-61
2023/03/14 08:25:23;;;;;;;;;;;;;;;-144.70;100.00;64190.91;4772241;30;19974;-61
2023/03/14 08:27:49;;;;;;;;;;;;;;;-144.70;100.00;64190.91;4772062;30;19914;-61
2023/03/14 08:30:16;;;;;;;;;;;;;;;-144.70;100.00;64190.91;4772187;30;19925;-61
2023/03/14 08:32:42;;;;;;;;;;;;;;;-144.70;100.00;64190.91;4771639;30;19918;-61
2023/03/14 08:35:08;;;;;;;;;;;;;;;-144.70;100.00;64190.91;4772014;30;19918;-61
2023/03/14 08:37:35;;;;;;;;;;;;;;;-144.70;100.00;64190.91;4771988;30;19922;-61
2023/03/14 08:40:01;;;;;;;;;;;;;;;-144.70;100.00;64190.91;4771990;30;19918;-61
2023/03/14 08:42:27;;;;;;;;;;;;;;;-144.70;100.00;64190.91;4771451;30;19925;-61
2023/03/14 08:44:53;;;;;;;;;;;;;;;-144.70;100.00;64190.91;4772117;30;19929;-61
2023/03/14 08:47:19;;;;;;;;;;;;;;;-144.70;100.00;64190.91;4771687;30;19922;-61
2023/03/14 08:49:45;;;;;;;;;;;;;;;-144.70;100.00;64190.91;4771728;30;19921;-61
2023/03/14 08:52:11;;;;;;;;;;;;;;;-144.70;100.00;64190.91;4755625;30;19918;-61
2023/03/14 08:54:37;;;;;;;;;;;;;;;-144.70;100.00;64190.91;4789442;30;19918;-60
2023/03/14 08:57:03;;;;;;;;;;;;;;;-144.70;100.00;64190.91;4789396;30;19948;-61
2023/03/14 08:59:29;;;;;;;;;;;;;;;-144.70;100.00;64190.91;4789487;30;19921;-61
2023/03/14 09:01:55;;;;;;;;;;;;;;;-144.70;100.00;64190.91;4789454;30;19918;-61
2023/03/14 09:04:21;;;;;;;;;;;;;;;-144.70;100.00;64190.91;4784208;30;19921;-60
2023/03/14 09:06:47;;;;;;;;;;;;;;;-144.70;100.00;64190.91;4771179;30;19922;-60
2023/03/14 09:09:13;;;;;;;;;;;;;;;-144.70;100.00;64190.91;4769656;30;20313;-60
2023/03/14 09:11:39;;;;;;;;;;;;;;;-144.70;100.00;64190.91;4772738;30;19994;-60
2023/03/14 09:14:05;;;;;;;;;;;;;;;-144.70;100.00;64190.91;4773046;30;19979;-60
2023/03/14 09:16:31;;;;;;;;;;;;;;;-144.70;100.00;64190.91;4773338;30;19925;-60
2023/03/14 09:18:59;;;;;;;;;;;;;;;-144.70;100.00;64190.91;4770266;30;19922;-59
2023/03/14 09:21:28;;;;;;;;;;;;;;;-144.70;100.00;64190.91;4772577;30;19922;-60
2023/03/14 09:23:54;;;;;;;;;;;;;;;-144.70;100.00;64190.91;4769965;30;19926;-60
2023/03/14 09:26:20;;;;;;;;;;;;;;;-144.70;100.00;64190.91;4773004;30;19928;-60
2023/03/14 09:28:46;;;;;;;;;;;;;;;-144.70;100.00;64190.91;4771032;30;19918;-59
2023/03/14 09:31:12;;;;;;;;;;;;;;;-144.70;100.00;64190.91;4771135;30;19928;-59
2023/03/14 09:33:38;;;;;;;;;;;;;;;-144.70;100.00;64190.91;4770748;30;19922;-59
2023/03/14 09:36:04;;;;;;;;;;;;;;;-144.70;100.00;64190.91;4770949;30;20293;-59
2023/03/14 09:38:30;;;;;;;;;;;;;;;-144.70;100.00;64190.91;4770800;30;19957;-59
2023/03/14 09:40:58;;;;;;;;;;;;;;;-144.70;100.00;64190.91;4770386;30;19928;-59
2023/03/14 09:43:25;;;;;;;;;;;;;;;-144.70;100.00;64190.91;4770412;30;19917;-59
2023/03/14 09:45:51;;;;;;;;;;;;;;;-144.70;100.00;64190.91;4775071;30;20343;-59
2023/03/14 09:48:20;;;;;;;;;;;;;;;-144.70;100.00;64190.91;4788796;30;19921;-59
2023/03/14 09:50:50;;;;;;;;;;;;;;;-144.70;100.00;64190.91;4788734;30;19925;-59
2023/03/14 09:53:18;;;;;;;;;;;;;;;-144.70;100.00;64190.91;4767274;30;19925;-59
2023/03/14 09:55:45;;;;;;;;;;;;;;;-144.70;100.00;64190.91;4752963;30;19926;-59
2023/03/14 09:58:13;;;;;;;;;;;;;;;-144.70;100.00;64190.91;4759850;30;19928;-59
2023/03/14 10:00:39;;;;;;;;;;;;;;;-144.70;100.00;64190.91;4770647;30;19924;-59
2023/03/14 10:03:14;;;;;;;;;;;;;;;-144.70;100.00;64190.91;4754209;30;19941;-60
2023/03/14 10:05:41;;;;;;;;;;;;;;;-144.70;100.00;64190.91;4770583;30;19917;-60
2023/03/14 10:08:10;;;;;;;;;;;;;;;-144.70;100.00;64190.91;4770342;30;19918;-60
2023/03/14 10:10:36;;;;;;;;;;;;;;;-144.70;100.00;64190.91;4770129;30;20383;-59
2023/03/14 10:13:13;;;;;;;;;;;;;;;-144.70;100.00;64190.91;4794093;24;19964;-59
2023/03/14 10:15:39;;;;;;;;;;;;;;;-144.70;100.00;64190.91;4788201;30;19918;-59
2023/03/14 10:18:12;;;;;;;;;;;;;;;-144.70;100.00;64190.91;4788368;30;20446;-59
2023/03/14 10:20:43;;;;;;;;;;;;;;;-144.70;100.00;64190.91;4788174;30;19921;-58
2023/03/14 10:23:12;;;;;;;;;;;;;;;-144.70;100.00;64190.91;4787732;30;19948;-59
2023/03/14 10:25:58;;;;;;;;;;;;;;;-144.70;100.00;64190.91;4764927;30;20274;-59
2023/03/14 10:28:28;;;;;;;;;;;;;;;-144.70;100.00;64190.91;4780963;29;20329;-59
2023/03/14 10:30:54;;;;;;;;;;;;;;;-144.70;100.00;64190.91;4786748;30;19925;-59
2023/03/14 10:33:22;;;;;;;;;;;;;;;-144.70;100.00;64190.91;4784476;30;19921;-59
2023/03/14 10:35:59;;;;;;;;;;;;;;;-144.70;100.00;64190.91;4787751;30;19996;-59
2023/03/14 10:38:28;;;;;;;;;;;;;;;-144.70;100.00;64190.91;4774194;30;20468;-59
2023/03/14 10:40:54;;;;;;;;;;;;;;;-144.70;100.00;64190.91;4778350;29;19941;-59
2023/03/14 10:43:26;;;;;;;;;;;;;;;-144.70;100.00;64190.91;4769641;30;20293;-59
2023/03/14 10:45:57;;;;;;;;;;;;;;;-144.70;100.00;64190.91;4753644;30;19968;-59
2023/03/14 10:48:23;;;;;;;;;;;;;;;-144.70;100.00;64190.91;4753217;30;19941;-59
2023/03/14 10:50:53;;;;;;;;;;;;;;;-144.70;100.00;64190.91;4769614;30;20377;-59
2023/03/14 10:53:19;;;;;;;;;;;;;;;-144.70;100.00;64190.91;4758537;30;19961;-59
2023/03/14 10:55:45;;;;;;;;;;;;;;;-144.70;100.00;64190.91;4751944;30;19956;-59
2023/03/14 10:58:18;;;;;;;;;;;;;;;-144.70;100.00;64190.91;4768711;30;19922;-59
2023/03/14 11:00:47;;;;;;;;;;;;;;;-144.70;100.00;64190.91;4769586;30;19921;-59
2023/03/14 11:03:14;;;;;;;;;;;;;;;-144.70;100.00;64190.91;4769329;30;20020;-59
2023/03/14 11:05:45;;;;;;;;;;;;;;;-144.70;100.00;64190.91;4769452;30;19979;-59
2023/03/14 11:08:29;;;;;;;;;;;;;;;-144.70;100.00;64190.91;4769563;30;20381;-59
2023/03/14 11:11:07;;;;;;;;;;;;;;;-144.70;100.00;64190.91;4769498;30;19917;-59
2023/03/14 11:13:44;;;;;;;;;;;;;;;-144.70;100.00;64190.91;4769189;30;20388;-59
2023/03/14 11:16:29;;;;;;;;;;;;;;;-144.70;100.00;64190.91;4753324;30;19925;-59
2023/03/14 11:19:17;;;;;;;;;;;;;;;-144.70;100.00;64190.91;4769157;30;19917;-59
2023/03/14 11:21:59;;;;;;;;;;;;;;;-144.70;100.00;64190.91;4769553;30;20364;-59
2023/03/14 11:24:39;;;;;;;;;;;;;;;-144.70;100.00;64190.91;4768903;30;20340;-59
2023/03/14 11:27:05;;;;;;;;;;;;;;;-144.70;100.00;64190.91;4769330;30;20400;-59
2023/03/14 11:29:31;;;;;;;;;;;;;;;-144.70;100.00;64190.91;4769284;30;19932;-59
2023/03/14 11:31:59;;;;;;;;;;;;;;;-144.70;100.00;64190.91;4769316;30;19920;-59
2023/03/14 11:34:28;;;;;;;;;;;;;;;-144.70;100.00;64190.91;4768854;30;19960;-59
2023/03/14 11:37:04;;;;;;;;;;;;;;;-144.70;100.00;64190.91;4769235;30;19920;-58
2023/03/14 11:39:38;;;;;;;;;;;;;;;-144.70;100.00;64190.91;4768990;30;20008;-59
2023/03/14 11:42:04;;;;;;;;;;;;;;;-144.70;100.00;64190.91;4766410;30;19918;-58
2023/03/14 11:44:32;;;;;;;;;;;;;;;-144.70;100.00;64190.91;4768763;30;20278;-58
2023/03/14 11:47:07;;;;;;;;;;;;;;;-144.70;100.00;64190.91;4770109;30;20373;-58
2023/03/14 11:49:38;;;;;;;;;;;;;;;-144.70;100.00;64190.91;4768280;30;20382;-58
2023/03/14 11:52:34;;;;;;;;;;;;;;;-144.70;100.00;64190.91;4767401;30;19921;-58
2023/03/14 11:55:02;;;;;;;;;;;;;;;-144.70;100.00;64190.91;4748603;30;20362;-58
2023/03/14 11:57:28;;;;;;;;;;;;;;;-144.70;100.00;64190.91;4769045;30;20285;-57
2023/03/14 11:59:57;;;;;;;;;;;;;;;-144.70;100.00;64190.91;4772217;30;20411;-58
2023/03/14 12:02:41;;;;;;;;;;;;;;;-144.70;100.00;64190.91;4771079;30;19948;-59
2023/03/14 12:05:16;;;;;;;;;;;;;;;-144.70;100.00;64190.91;4772542;30;19924;-57
2023/03/14 12:07:57;;;;;;;;;;;;;;;-144.70;100.00;64190.91;4772622;30;19925;-58
2023/03/14 12:10:23;;;;;;;;;;;;;;;-144.70;100.00;64190.91;4782686;24;20329;-57
2023/03/14 12:12:49;;;;;;;;;;;;;;;-144.70;100.00;64190.91;4790112;30;20400;-57
2023/03/14 12:15:20;;;;;;;;;;;;;;;-144.70;100.00;64190.91;4789753;30;19917;-57
2023/03/14 12:17:46;;;;;;;;;;;;;;;-144.70;100.00;64190.91;4790266;30;19917;-57
2023/03/14 12:20:15;;;;;;;;;;;;;;;-144.70;100.00;64190.91;4773973;30;19928;-58